Time;durP1;ratioP1;P1;durP2;ratioP2;P2;SDS_P1;SDS_P2;PMS_P1;PMS_P2;Temp;Humidity;BMP_temperature;BMP_pressure;BME280_temperature;BME280_humidity;BME280_pressure;Samples;Min_cycle;Max_cycle;Signal;HPM_P1;HPM_P2
2021/11/04 00:01:56;;;;;;;34.33;25.52;;;;;;;13.74;81.30;101446.70;1690611;83;20952;-76
2021/11/04 00:04:25;;;;;;;31.00;27.50;;;;;;;13.75;81.07;101444.91;1686852;84;21117;-77
2021/11/04 00:06:53;;;;;;;31.65;25.90;;;;;;;13.72;81.04;101446.39;1664002;84;21494;-76
2021/11/04 00:09:20;;;;;;;33.02;26.65;;;;;;;13.67;81.03;101442.27;1690514;83;21027;-77
2021/11/04 00:11:47;;;;;;;30.40;23.90;;;;;;;13.64;81.14;101440.28;1687636;83;21025;-76
2021/11/04 00:14:14;;;;;;;29.82;25.52;;;;;;;13.61;81.26;101443.95;1694693;83;20984;-76
2021/11/04 00:16:42;;;;;;;36.38;26.82;;;;;;;13.63;81.47;101451.30;1699087;84;21522;-77
2021/11/04 00:19:09;;;;;;;35.23;27.32;;;;;;;13.64;81.56;101450.34;1690091;83;20869;-78
2021/11/04 00:21:35;;;;;;;23.70;20.08;;;;;;;13.68;81.60;101455.81;1687541;83;20889;-75
2021/11/04 00:24:03;;;;;;;13.25;10.75;;;;;;;13.72;81.58;101463.53;1686070;85;20944;-76
2021/11/04 00:26:29;;;;;;;11.73;9.90;;;;;;;13.69;80.77;101464.56;1689243;83;20968;-76
2021/11/04 00:28:57;;;;;;;36.20;27.58;;;;;;;13.60;80.66;101463.32;1689885;84;21074;-76
2021/11/04 00:31:24;;;;;;;31.82;25.92;;;;;;;13.56;80.84;101469.73;1693826;83;20947;-76
2021/11/04 00:33:55;;;;;;;37.05;27.07;;;;;;;13.58;81.24;101473.58;1691213;83;21000;-77
2021/11/04 00:36:23;;;;;;;44.80;33.58;;;;;;;13.59;81.27;101473.98;1685956;83;20933;-77
2021/11/04 00:38:49;;;;;;;47.10;33.28;;;;;;;13.58;81.28;101489.39;1687655;83;21047;-77
2021/11/04 00:41:17;;;;;;;45.73;31.70;;;;;;;13.58;81.34;101499.94;1693437;83;21037;-76
2021/11/04 00:43:44;;;;;;;36.50;28.25;;;;;;;13.57;81.36;101498.25;1698408;83;20915;-76
2021/11/04 00:46:11;;;;;;;31.50;25.37;;;;;;;13.58;81.37;101489.39;1694788;83;20987;-77
2021/11/04 00:48:38;;;;;;;36.25;24.52;;;;;;;13.59;81.32;101485.36;1689963;83;21079;-76
2021/11/04 00:51:05;;;;;;;35.73;26.90;;;;;;;13.58;81.12;101483.64;1717366;82;21383;-76
2021/11/04 00:53:32;;;;;;;40.63;29.23;;;;;;;13.58;81.05;101488.08;1724708;82;21089;-76
2021/11/04 00:56:00;;;;;;;23.98;20.05;;;;;;;13.56;81.24;101492.14;1717970;82;20976;-77
2021/11/04 00:58:28;;;;;;;36.93;25.05;;;;;;;13.59;81.34;101497.70;1719295;82;20860;-75
2021/11/04 01:00:55;;;;;;;36.20;26.82;;;;;;;13.63;81.21;101500.53;1724664;81;21430;-76
2021/11/04 01:03:22;;;;;;;25.48;19.50;;;;;;;13.62;81.06;101500.98;1715764;82;21498;-75
2021/11/04 01:05:50;;;;;;;26.10;19.52;;;;;;;13.65;81.08;101508.73;1720548;82;22607;-75
2021/11/04 01:08:17;;;;;;;23.62;20.10;;;;;;;13.66;80.90;101510.41;1716385;82;20923;-78
2021/11/04 01:10:44;;;;;;;29.27;19.50;;;;;;;13.67;80.76;101514.77;1717935;82;20950;-76
2021/11/04 01:13:11;;;;;;;29.98;23.05;;;;;;;13.69;80.68;101512.02;1722805;82;21000;-77
2021/11/04 01:15:37;;;;;;;29.32;22.50;;;;;;;13.68;80.38;101515.13;1719254;82;20846;-77
2021/11/04 01:18:04;;;;;;;27.58;21.77;;;;;;;13.63;80.34;101514.55;1715048;82;21531;-76
2021/11/04 01:20:32;;;;;;;23.30;19.77;;;;;;;13.59;80.45;101513.03;1718230;82;21458;-75
2021/11/04 01:23:02;;;;;;;34.13;23.98;;;;;;;13.56;80.44;101515.86;1714507;83;20877;-76
2021/11/04 01:25:31;;;;;;;28.47;22.85;;;;;;;13.53;80.51;101525.72;1716272;82;20881;-76
2021/11/04 01:27:58;;;;;;;35.50;24.57;;;;;;;13.47;80.59;101511.09;1714636;82;20909;-76
2021/11/04 01:30:25;;;;;;;41.02;27.32;;;;;;;13.41;80.63;101506.20;1714544;83;21491;-76
2021/11/04 01:32:51;;;;;;;40.83;27.15;;;;;;;13.34;80.75;101500.88;1719808;82;20947;-78
2021/11/04 01:35:18;;;;;;;37.10;26.35;;;;;;;13.26;80.84;101503.46;1721589;82;20868;-77
2021/11/04 01:37:46;;;;;;;35.98;26.35;;;;;;;13.18;81.04;101502.20;1721413;82;21532;-77
2021/11/04 01:40:13;;;;;;;38.48;28.15;;;;;;;13.15;81.38;101503.22;1715358;82;20991;-77
2021/11/04 01:42:40;;;;;;;39.25;27.87;;;;;;;13.12;81.30;101502.57;1715181;82;21145;-76
2021/11/04 01:45:07;;;;;;;38.58;27.32;;;;;;;13.05;81.34;101508.17;1717482;83;21401;-77
2021/11/04 01:49:02;;;;;;;45.20;30.30;;;;;;;13.01;81.78;101504.48;1816355;79;22497;-77
2021/11/04 01:51:29;;;;;;;50.83;34.80;;;;;;;12.94;81.85;101517.14;1789563;80;20895;-77
2021/11/04 01:53:56;;;;;;;42.25;31.60;;;;;;;12.93;82.23;101515.91;1789701;80;21123;-77
2021/11/04 01:56:25;;;;;;;43.05;33.50;;;;;;;12.96;82.46;101513.96;1789215;80;20928;-77
2021/11/04 01:58:52;;;;;;;42.20;31.82;;;;;;;13.00;82.47;101511.51;1789650;80;20919;-76
2021/11/04 02:01:21;;;;;;;46.18;34.70;;;;;;;13.05;82.46;101515.23;1789224;80;20891;-76
2021/11/04 02:04:09;;;;;;;41.02;29.57;;;;;;;13.07;82.34;101518.59;1789445;80;21021;-77
2021/11/04 02:07:09;;;;;;;42.80;31.15;;;;;;;13.08;82.31;101524.73;1789188;80;21139;-77
2021/11/04 02:10:05;;;;;;;39.05;27.90;;;;;;;13.09;82.26;101527.73;1789360;80;21434;-77
2021/11/04 02:13:01;;;;;;;40.15;29.12;;;;;;;13.11;82.31;101532.45;1789564;79;20911;-77
2021/11/04 02:15:30;;;;;;;43.55;31.75;;;;;;;13.15;82.25;101542.73;1789396;80;21381;-78
2021/11/04 02:17:57;;;;;;;44.48;33.00;;;;;;;13.13;82.21;101541.97;1789367;80;20943;-77
2021/11/04 02:20:47;;;;;;;53.30;34.92;;;;;;;13.10;81.87;101553.16;1789533;80;21591;-76
2021/11/04 02:23:53;;;;;;;51.50;32.08;;;;;;;13.03;81.69;101553.48;1774324;80;20920;-78
2021/11/04 02:26:20;;;;;;;41.25;29.10;;;;;;;13.00;81.49;101560.70;1701853;80;20861;-78
2021/11/04 02:28:47;;;;;;;39.15;27.93;;;;;;;12.93;81.09;101560.66;1789452;79;20864;-78
2021/11/04 02:31:14;;;;;;;40.33;27.25;;;;;;;12.86;80.84;101569.36;1789299;80;20951;-77
2021/11/04 02:33:41;;;;;;;36.05;24.95;;;;;;;12.79;80.69;101571.47;1789395;80;21128;-78
2021/11/04 02:36:08;;;;;;;34.13;24.65;;;;;;;12.71;80.64;101571.50;1789418;80;20880;-76
2021/11/04 02:38:34;;;;;;;35.83;23.85;;;;;;;12.63;80.67;101580.66;1789825;80;20920;-77
2021/11/04 02:41:02;;;;;;;38.02;24.87;;;;;;;12.59;80.77;101588.33;1758701;80;20892;-77
2021/11/04 02:43:31;;;;;;;37.80;25.72;;;;;;;12.56;80.84;101588.94;1789622;80;20931;-77
2021/11/04 02:45:59;;;;;;;38.50;26.20;;;;;;;12.54;80.88;101602.64;1789368;80;21140;-79
2021/11/04 02:48:27;;;;;;;37.90;26.90;;;;;;;12.52;80.87;101610.64;1785879;80;20947;-78
2021/11/04 02:50:55;;;;;;;35.13;25.48;;;;;;;12.48;80.97;101615.67;1783998;80;20931;-78
2021/11/04 02:53:28;;;;;;;39.60;26.68;;;;;;;12.47;81.00;101623.16;1784542;80;21358;-77
2021/11/04 02:55:55;;;;;;;41.68;27.60;;;;;;;12.42;81.00;101619.45;1784611;80;21408;-78
2021/11/04 02:58:22;;;;;;;41.15;29.05;;;;;;;12.38;80.92;101616.63;1784518;80;21798;-77
2021/11/04 03:00:53;;;;;;;39.92;26.95;;;;;;;12.35;81.12;101618.08;1783407;80;20912;-77
2021/11/04 03:03:20;;;;;;;39.08;27.35;;;;;;;12.37;81.30;101624.58;1783965;80;20849;-77
2021/11/04 03:05:47;;;;;;;44.98;29.18;;;;;;;12.37;81.27;101622.80;1783647;80;20904;-77
2021/11/04 03:08:14;;;;;;;44.48;28.75;;;;;;;12.36;81.17;101628.12;1784248;80;21081;-76
2021/11/04 03:10:40;;;;;;;44.20;30.37;;;;;;;12.32;81.02;101625.30;1783788;80;21521;-78
2021/11/04 03:13:08;;;;;;;42.23;28.45;;;;;;;12.28;81.10;101624.59;1783498;80;20856;-76
2021/11/04 03:15:46;;;;;;;41.18;28.65;;;;;;;12.28;81.30;101618.48;1783551;80;20896;-79
2021/11/04 03:18:13;;;;;;;46.33;30.32;;;;;;;12.30;81.24;101614.00;1783693;80;21346;-77
2021/11/04 03:20:40;;;;;;;42.62;27.35;;;;;;;12.28;81.21;101611.91;1783527;80;20888;-76
2021/11/04 03:23:07;;;;;;;45.33;30.25;;;;;;;12.28;81.14;101607.49;1783417;80;21118;-78
2021/11/04 03:25:34;;;;;;;41.75;28.35;;;;;;;12.24;81.04;101605.47;1783571;80;21011;-78
2021/11/04 03:28:02;;;;;;;42.27;28.73;;;;;;;12.20;81.03;101605.70;1783408;80;21508;-78
2021/11/04 03:30:33;;;;;;;47.60;29.70;;;;;;;12.13;81.22;101597.75;1783383;80;20892;-77
2021/11/04 03:33:00;;;;;;;44.95;30.02;;;;;;;12.11;81.41;101596.50;1784343;80;21409;-77
2021/11/04 03:35:29;;;;;;;46.90;30.68;;;;;;;12.09;81.51;101600.98;1783863;80;21692;-77
2021/11/04 03:37:56;;;;;;;43.95;31.82;;;;;;;12.08;81.64;101610.30;1783310;80;20972;-78
2021/11/04 03:40:23;;;;;;;45.23;31.42;;;;;;;12.06;82.01;101601.62;1783422;80;21414;-78
2021/11/04 03:42:50;;;;;;;62.38;44.10;;;;;;;12.09;82.21;101604.09;1728707;80;21362;-78
2021/11/04 03:45:18;;;;;;;63.02;46.33;;;;;;;12.12;82.20;101617.10;1783622;80;20900;-77
2021/11/04 03:47:46;;;;;;;79.80;55.67;;;;;;;12.14;82.38;101622.66;1782493;80;21118;-76
2021/11/04 03:50:13;;;;;;;59.73;42.95;;;;;;;12.17;82.30;101629.07;1783651;80;21026;-77
2021/11/04 03:52:42;;;;;;;59.30;41.33;;;;;;;12.16;82.08;101632.64;1783943;80;20888;-78
2021/11/04 03:55:11;;;;;;;51.10;36.40;;;;;;;12.09;81.97;101637.80;1783650;80;21323;-78
2021/11/04 03:57:40;;;;;;;47.62;32.90;;;;;;;12.06;82.53;101648.95;1784222;80;20896;-78
2021/11/04 04:00:12;;;;;;;48.50;31.80;;;;;;;12.10;82.81;101659.71;1783708;80;21480;-77
2021/11/04 04:02:40;;;;;;;48.55;31.77;;;;;;;12.16;82.77;101667.27;1784046;80;20861;-77
2021/11/04 04:05:07;;;;;;;52.95;34.10;;;;;;;12.20;82.61;101666.19;1783824;80;20920;-77
2021/11/04 04:07:34;;;;;;;57.90;35.63;;;;;;;12.23;82.40;101668.22;1783769;80;20904;-78
2021/11/04 04:10:01;;;;;;;52.70;33.63;;;;;;;12.26;82.34;101675.09;1783910;80;21366;-79
2021/11/04 04:12:28;;;;;;;54.20;34.00;;;;;;;12.30;82.20;101686.33;1784198;80;21104;-77
2021/11/04 04:14:55;;;;;;;50.38;31.90;;;;;;;12.33;82.08;101692.27;1787298;80;20840;-76
2021/11/04 04:17:23;;;;;;;47.70;31.80;;;;;;;12.36;82.02;101688.63;1785265;80;20837;-76
2021/11/04 04:19:50;;;;;;;47.73;33.50;;;;;;;12.37;81.76;101681.98;1784081;80;21358;-77
2021/11/04 04:22:19;;;;;;;47.80;32.15;;;;;;;12.35;81.46;101676.42;1783952;80;20872;-76
2021/11/04 04:24:46;;;;;;;51.50;32.30;;;;;;;12.29;81.34;101679.34;1784070;80;21164;-78
2021/11/04 04:27:13;;;;;;;52.10;31.48;;;;;;;12.22;81.46;101676.17;1784547;80;20924;-77
2021/11/04 04:29:40;;;;;;;48.08;30.68;;;;;;;12.15;81.69;101661.64;1784058;80;20873;-77
2021/11/04 04:32:07;;;;;;;52.27;33.15;;;;;;;12.11;82.29;101668.81;1784128;80;20936;-79
2021/11/04 04:34:34;;;;;;;55.15;34.58;;;;;;;12.10;82.62;101675.48;1783982;80;21044;-79
2021/11/04 04:37:01;;;;;;;55.38;34.85;;;;;;;12.09;82.78;101690.86;1783946;80;21358;-78
2021/11/04 04:39:29;;;;;;;46.90;32.33;;;;;;;12.09;82.92;101689.07;1783829;80;20923;-79
2021/11/04 04:41:57;;;;;;;51.10;31.77;;;;;;;12.11;83.02;101700.37;1783948;80;21421;-78
2021/11/04 04:44:24;;;;;;;49.50;31.60;;;;;;;12.14;82.91;101709.88;1783637;80;20923;-77
2021/11/04 04:46:51;;;;;;;50.48;30.52;;;;;;;12.17;82.90;101712.38;1783924;80;21377;-77
2021/11/04 04:49:18;;;;;;;46.20;30.05;;;;;;;12.20;82.97;101706.95;1782644;80;21765;-79
2021/11/04 04:51:45;;;;;;;47.70;29.70;;;;;;;12.22;83.24;101707.27;1783726;80;20916;-78
2021/11/04 04:54:12;;;;;;;52.75;31.07;;;;;;;12.23;83.46;101714.24;1783780;80;21412;-79
2021/11/04 04:56:39;;;;;;;59.18;32.10;;;;;;;12.25;83.63;101712.86;1783716;80;20924;-76
2021/11/04 04:59:07;;;;;;;48.35;30.35;;;;;;;12.28;83.28;101720.59;1783709;80;20983;-78
2021/11/04 05:01:34;;;;;;;45.85;29.15;;;;;;;12.30;83.18;101718.73;1783757;80;21148;-78
2021/11/04 05:04:01;;;;;;;41.45;26.70;;;;;;;12.31;82.92;101720.89;1783584;80;20963;-79
2021/11/04 05:06:28;;;;;;;39.18;28.27;;;;;;;12.34;83.02;101714.16;1783828;80;20860;-79
2021/11/04 05:08:55;;;;;;;47.25;28.92;;;;;;;12.37;82.91;101715.34;1783659;80;20987;-78
2021/11/04 05:11:23;;;;;;;41.58;28.07;;;;;;;12.42;82.73;101714.16;1783852;80;20919;-80
2021/11/04 05:13:50;;;;;;;34.35;24.07;;;;;;;12.49;82.40;101712.55;1783703;80;22006;-79
2021/11/04 05:16:17;;;;;;;39.48;24.55;;;;;;;12.51;82.18;101716.80;1783948;80;20868;-77
2021/11/04 05:18:44;;;;;;;33.48;24.02;;;;;;;12.54;81.96;101715.78;1783739;80;21000;-78
2021/11/04 05:21:11;;;;;;;31.15;23.15;;;;;;;12.53;81.70;101717.57;1783863;80;20904;-73
2021/11/04 05:23:39;;;;;;;33.40;22.90;;;;;;;12.52;81.34;101730.36;1784655;80;20873;-80
2021/11/04 05:26:06;;;;;;;33.38;22.62;;;;;;;12.48;81.08;101736.70;1784524;80;21067;-83
2021/11/04 05:28:33;;;;;;;34.73;24.27;;;;;;;12.40;81.26;101746.27;1784097;80;20877;-85
2021/11/04 05:31:01;;;;;;;33.80;22.93;;;;;;;12.41;81.64;101756.35;1784403;80;20912;-83
2021/11/04 05:33:28;;;;;;;32.10;23.35;;;;;;;12.43;81.86;101755.81;1783972;80;20979;-84
2021/11/04 05:35:56;;;;;;;32.88;20.88;;;;;;;12.50;81.80;101757.20;1783791;80;20932;-84
2021/11/04 05:38:22;;;;;;;30.97;21.25;;;;;;;12.54;81.53;101749.99;1784003;80;21126;-82
2021/11/04 05:40:49;;;;;;;28.10;20.48;;;;;;;12.53;81.30;101746.98;1784175;80;20841;-85
2021/11/04 05:43:16;;;;;;;31.42;22.52;;;;;;;12.51;81.37;101758.05;1784616;80;20956;-85
2021/11/04 05:45:43;;;;;;;31.65;19.98;;;;;;;12.49;81.39;101767.80;1784993;80;20848;-85
2021/11/04 05:48:10;;;;;;;31.00;20.20;;;;;;;12.47;81.45;101776.22;1785606;80;21429;-83
2021/11/04 05:50:37;;;;;;;29.10;20.88;;;;;;;12.46;81.67;101774.06;1785428;80;21022;-86
2021/11/04 05:53:04;;;;;;;32.17;22.20;;;;;;;12.48;81.92;101776.63;1784708;80;21018;-80
2021/11/04 05:55:32;;;;;;;28.90;20.40;;;;;;;12.52;82.03;101778.19;1783702;80;20908;-83
2021/11/04 05:58:00;;;;;;;29.72;20.68;;;;;;;12.57;81.92;101779.65;1784080;80;21330;-84
2021/11/04 06:00:27;;;;;;;28.38;19.62;;;;;;;12.63;81.80;101784.61;1783818;80;20975;-80
2021/11/04 06:02:55;;;;;;;27.70;19.37;;;;;;;12.67;81.64;101787.92;1783830;80;20920;-83
2021/11/04 06:05:22;;;;;;;28.05;19.02;;;;;;;12.72;81.58;101783.77;1783748;80;20924;-82
2021/11/04 06:07:49;;;;;;;31.12;20.02;;;;;;;12.76;81.31;101782.22;1784321;80;21442;-82
2021/11/04 06:10:16;;;;;;;28.17;20.70;;;;;;;12.78;81.10;101788.27;1783886;80;20944;-83
2021/11/04 06:12:43;;;;;;;23.45;18.02;;;;;;;12.81;81.04;101784.15;1784214;80;20915;-83
2021/11/04 06:15:12;;;;;;;30.25;19.70;;;;;;;12.84;80.82;101772.61;1784121;80;21140;-82
2021/11/04 06:17:39;;;;;;;25.32;18.57;;;;;;;12.88;80.57;101773.31;1784082;80;21065;-82
2021/11/04 06:20:08;;;;;;;25.23;19.02;;;;;;;12.91;80.33;101770.04;1784168;80;21052;-79
2021/11/04 06:22:36;;;;;;;36.25;26.65;;;;;;;12.92;80.33;101782.77;1783947;80;20973;-80
2021/11/04 06:25:04;;;;;;;24.55;18.45;;;;;;;12.95;80.16;101785.23;1784159;80;21022;-80
2021/11/04 06:27:31;;;;;;;23.47;19.32;;;;;;;13.00;79.84;101781.41;1784033;80;21080;-80
2021/11/04 06:29:58;;;;;;;25.88;18.73;;;;;;;13.02;79.50;101778.70;1783587;80;20904;-80
2021/11/04 06:32:25;;;;;;;25.35;18.05;;;;;;;13.02;79.26;101780.02;1784020;80;20896;-80
2021/11/04 06:34:52;;;;;;;28.02;20.10;;;;;;;13.00;78.94;101783.20;1784071;80;21362;-79
2021/11/04 06:37:19;;;;;;;26.75;18.98;;;;;;;12.98;79.05;101781.98;1784072;80;20896;-80
2021/11/04 06:39:46;;;;;;;27.02;18.95;;;;;;;12.98;78.82;101773.20;1783813;80;21120;-81
2021/11/04 06:42:13;;;;;;;34.67;23.50;;;;;;;12.93;78.78;101768.66;1784029;80;20833;-79
2021/11/04 06:44:40;;;;;;;37.98;25.82;;;;;;;12.89;78.78;101775.00;1783897;80;20944;-78
2021/11/04 06:47:09;;;;;;;42.58;26.45;;;;;;;12.85;79.02;101779.12;1784110;80;21377;-80
2021/11/04 06:49:36;;;;;;;43.52;27.80;;;;;;;12.86;79.09;101787.86;1770086;80;20933;-79
2021/11/04 06:52:03;;;;;;;43.98;29.23;;;;;;;12.85;79.29;101787.02;1743948;82;21109;-79
2021/11/04 06:54:31;;;;;;;49.27;30.45;;;;;;;12.85;79.43;101784.86;1743755;81;20931;-79
2021/11/04 06:56:58;;;;;;;49.50;27.82;;;;;;;12.86;79.49;101780.81;1744057;82;20905;-78
2021/11/04 06:59:26;;;;;;;47.50;28.42;;;;;;;12.88;79.13;101770.68;1743747;82;20999;-79
2021/11/04 07:01:59;;;;;;;49.10;29.82;;;;;;;12.81;79.08;101763.56;1744111;82;20837;-81
2021/11/04 07:04:33;;;;;;;50.80;29.48;;;;;;;12.72;79.21;101774.56;1744050;82;21865;-79
2021/11/04 07:07:09;;;;;;;;;;;;;;;12.69;79.59;101773.38;1746419;81;20861;-82
2021/11/04 07:09:40;;;;;;;42.88;28.70;;;;;;;12.71;79.58;101760.53;1744351;82;20091;-80
2021/11/04 07:12:11;;;;;;;46.40;29.23;;;;;;;12.71;79.63;101752.63;1743906;82;21433;-81
2021/11/04 07:14:41;;;;;;;45.83;30.20;;;;;;;12.71;79.62;101755.27;1744140;81;20952;-81
2021/11/04 07:17:11;;;;;;;53.87;32.35;;;;;;;12.76;79.85;101756.34;1745305;82;21115;-83
2021/11/04 07:19:37;;;;;;;56.98;34.30;;;;;;;12.84;79.70;101772.13;1743523;82;20964;-81
2021/11/04 07:22:34;;;;;;;62.93;39.45;;;;;;;12.90;79.35;101771.45;1743853;82;20940;-80
2021/11/04 07:25:13;;;;;;;69.42;40.10;;;;;;;12.91;79.24;101770.52;1744041;82;21398;-81
2021/11/04 07:28:13;;;;;;;76.82;47.55;;;;;;;12.92;79.07;101769.59;1744129;82;20940;-80
2021/11/04 07:30:45;;;;;;;80.42;45.67;;;;;;;12.91;79.09;101754.71;1743280;82;21139;-80
2021/11/04 07:33:13;;;;;;;86.67;48.85;;;;;;;12.92;78.88;101753.33;1744285;82;20889;-80
2021/11/04 07:35:41;;;;;;;106.50;60.50;;;;;;;12.90;79.00;101767.03;1744120;82;20904;-81
2021/11/04 07:38:10;;;;;;;99.20;60.33;;;;;;;12.89;79.29;101775.84;1743629;82;20974;-81
2021/11/04 07:40:37;;;;;;;94.07;57.08;;;;;;;12.92;79.30;101785.39;1744093;81;21398;-79
2021/11/04 07:43:05;;;;;;;103.47;57.78;;;;;;;12.90;79.33;101788.09;1743798;82;21108;-80
2021/11/04 07:45:32;;;;;;;99.72;53.17;;;;;;;12.92;79.59;101790.19;1743873;82;20932;-83
2021/11/04 07:47:59;;;;;;;89.45;48.52;;;;;;;12.98;79.49;101794.27;1744088;82;20968;-79
2021/11/04 07:50:29;;;;;;;84.52;44.90;;;;;;;13.00;79.13;101803.80;1766600;80;20951;-82
2021/11/04 07:52:58;;;;;;;80.80;48.00;;;;;;;12.97;78.74;101810.55;1783871;80;21468;-80
2021/11/04 07:55:25;;;;;;;87.88;49.90;;;;;;;12.96;78.75;101815.88;1784142;80;21114;-79
2021/11/04 07:57:52;;;;;;;79.75;47.17;;;;;;;12.97;78.64;101825.50;1783485;80;21343;-80
2021/11/04 08:00:21;;;;;;;78.62;45.60;;;;;;;13.00;78.48;101834.55;1783783;80;20927;-81
2021/11/04 08:02:48;;;;;;;75.20;45.78;;;;;;;13.04;78.40;101833.00;1784242;80;20998;-80
2021/11/04 08:05:17;;;;;;;80.90;45.92;;;;;;;13.12;78.29;101823.41;1784239;80;21015;-81
2021/11/04 08:07:44;;;;;;;72.55;44.77;;;;;;;13.20;78.15;101822.99;1785245;80;21784;-82
2021/11/04 08:10:13;;;;;;;71.20;43.23;;;;;;;13.23;77.38;101822.38;1785602;80;20919;-77
2021/11/04 08:12:41;;;;;;;69.17;42.35;;;;;;;13.25;77.22;101824.91;1787514;78;20924;-83
2021/11/04 08:15:10;;;;;;;71.20;43.52;;;;;;;13.27;77.03;101812.08;1785100;80;20900;-81
2021/11/04 08:17:37;;;;;;;69.20;43.45;;;;;;;13.30;76.72;101799.70;1784251;80;20924;-80
2021/11/04 08:20:07;;;;;;;65.78;41.65;;;;;;;13.31;76.54;101800.08;1784069;80;21171;-81
2021/11/04 08:22:35;;;;;;;79.58;45.75;;;;;;;13.31;76.65;101801.40;1783795;80;21022;-81
2021/11/04 08:25:04;;;;;;;81.47;46.77;;;;;;;13.30;76.69;101803.19;1783986;80;20852;-82
2021/11/04 08:27:32;;;;;;;75.78;45.45;;;;;;;13.32;76.93;101808.35;1783889;80;21358;-81
2021/11/04 08:29:59;;;;;;;83.67;46.00;;;;;;;13.37;76.95;101808.98;1783843;80;20920;-81
2021/11/04 08:32:26;;;;;;;77.80;47.73;;;;;;;13.41;76.90;101798.67;1784324;80;21120;-79
2021/11/04 08:34:53;;;;;;;58.90;38.80;;;;;;;13.43;76.60;101802.92;1783375;79;20884;-80
2021/11/04 08:37:20;;;;;;;76.55;48.25;;;;;;;13.45;76.30;101811.61;1783775;80;21433;-80
2021/11/04 08:39:47;;;;;;;66.12;45.00;;;;;;;13.47;76.07;101815.45;1784769;80;20941;-80
2021/11/04 08:42:18;;;;;;;67.80;46.15;;;;;;;13.50;75.91;101823.69;1783985;80;21010;-80
2021/11/04 08:44:47;;;;;;;69.90;43.85;;;;;;;13.51;75.77;101824.91;1783853;80;21335;-79
2021/11/04 08:47:13;;;;;;;69.37;43.98;;;;;;;13.54;75.66;101832.67;1783947;80;20900;-79
2021/11/04 08:49:41;;;;;;;69.00;44.48;;;;;;;13.59;75.62;101825.83;1783629;80;20956;-80
2021/11/04 08:52:08;;;;;;;74.27;47.58;;;;;;;13.66;75.59;101829.36;1783918;80;21002;-80
2021/11/04 08:54:36;;;;;;;61.35;42.33;;;;;;;13.74;75.40;101835.56;1783723;80;20983;-83
2021/11/04 08:57:04;;;;;;;56.35;38.38;;;;;;;13.82;75.09;101827.22;1784045;80;21120;-84
2021/11/04 08:59:31;;;;;;;57.90;39.80;;;;;;;13.94;74.10;101825.25;1783858;80;20873;-86
2021/11/04 09:01:58;;;;;;;63.15;41.98;;;;;;;13.94;74.10;101825.25;1783925;80;20904;-84
2021/11/04 09:04:25;;;;;;;57.08;41.40;;;;;;;13.95;73.85;101826.94;1784552;80;20967;-85
2021/11/04 09:06:53;;;;;;;56.20;39.25;;;;;;;13.97;73.68;101828.18;1784401;80;20975;-84
2021/11/04 09:09:20;;;;;;;52.65;39.20;;;;;;;13.97;73.44;101827.70;1784979;80;21845;-84
2021/11/04 09:11:47;;;;;;;59.40;38.78;;;;;;;13.97;73.27;101817.63;1784542;80;20940;-86
2021/11/04 09:14:14;;;;;;;56.20;41.23;;;;;;;13.93;73.25;101813.45;1784421;80;20923;-86
2021/11/04 09:16:43;;;;;;;50.15;36.30;;;;;;;13.89;73.38;101821.55;1783823;80;21500;-86
2021/11/04 09:19:11;;;;;;;48.28;36.63;;;;;;;13.86;73.31;101818.21;1784178;80;21365;-84
2021/11/04 09:21:38;;;;;;;46.15;35.52;;;;;;;13.82;73.53;101814.88;1783949;80;21107;-86
2021/11/04 09:24:05;;;;;;;54.40;36.85;;;;;;;13.84;73.65;101809.53;1784364;80;20856;-87
2021/11/04 09:26:35;;;;;;;53.38;33.10;;;;;;;13.88;73.71;101808.44;1785831;80;20915;-84
2021/11/04 09:29:02;;;;;;;43.90;34.95;;;;;;;13.87;73.19;101818.58;1783981;80;20904;-80
2021/11/04 09:31:29;;;;;;;45.80;34.38;;;;;;;13.86;73.20;101816.89;1783656;80;20983;-83
2021/11/04 09:33:58;;;;;;;45.33;33.55;;;;;;;13.87;72.99;101814.19;1783624;80;21121;-82
2021/11/04 09:36:28;;;;;;;44.67;32.88;;;;;;;13.91;73.10;101814.84;1783357;80;21054;-82
2021/11/04 09:38:58;;;;;;;47.25;34.73;;;;;;;13.92;72.89;101812.61;1783545;80;20971;-82
2021/11/04 09:41:26;;;;;;;46.40;34.33;;;;;;;13.96;72.79;101814.15;1783612;80;20963;-81
2021/11/04 09:43:57;;;;;;;48.70;36.33;;;;;;;13.97;72.95;101814.99;1783992;80;21018;-85
2021/11/04 09:46:25;;;;;;;51.13;37.23;;;;;;;14.01;73.16;101813.89;1784532;80;21144;-88
2021/11/04 09:48:52;;;;;;;52.05;38.78;;;;;;;14.05;73.10;101808.80;1784561;80;20892;-86
2021/11/04 09:51:20;;;;;;;44.25;35.73;;;;;;;14.13;73.15;101811.88;1778346;80;20837;-87
2021/11/04 09:53:50;;;;;;;47.85;36.48;;;;;;;14.19;72.74;101810.22;1775971;80;20976;-84
2021/11/04 09:56:17;;;;;;;46.45;35.55;;;;;;;14.25;72.46;101812.97;1775417;80;21393;-84
2021/11/04 09:58:44;;;;;;;44.23;32.90;;;;;;;14.26;72.47;101807.61;1775894;80;21812;-83
2021/11/04 10:01:25;;;;;;;46.80;33.10;;;;;;;14.28;72.29;101814.13;1775278;80;20881;-85
2021/11/04 10:03:57;;;;;;;42.75;30.65;;;;;;;14.28;72.27;101803.58;1776105;80;20916;-83
2021/11/04 10:06:32;;;;;;;38.48;29.70;;;;;;;14.25;72.19;101803.29;1776314;80;20892;-85
2021/11/04 10:09:03;;;;;;;40.75;31.87;;;;;;;14.23;72.25;101809.59;1775843;80;20877;-86
2021/11/04 10:11:36;;;;;;;40.70;32.25;;;;;;;14.21;72.53;101809.67;1776021;80;21128;-83
2021/11/04 10:14:12;;;;;;;42.45;32.20;;;;;;;14.26;72.58;101806.77;1775638;80;20893;-85
2021/11/04 10:16:40;;;;;;;45.08;33.08;;;;;;;14.31;72.71;101798.11;1775860;80;20936;-84
2021/11/04 10:19:09;;;;;;;41.63;30.88;;;;;;;14.40;72.65;101801.55;1775627;80;20991;-85
2021/11/04 10:21:42;;;;;;;42.17;31.25;;;;;;;14.47;72.52;101796.77;1775734;80;20959;-89
2021/11/04 10:24:22;;;;;;;37.10;29.77;;;;;;;14.44;72.17;101795.16;1775831;80;21161;-85
2021/11/04 10:26:58;;;;;;;34.90;26.97;;;;;;;14.46;72.30;101793.28;1775959;80;20881;-90
2021/11/04 10:29:17;;;;;;;38.67;29.10;;;;;;;14.49;72.09;101790.45;1774479;80;21454;-87
2021/11/04 10:31:52;;;;;;;42.25;30.45;;;;;;;14.42;72.25;101793.55;1775807;80;21007;-85
2021/11/04 10:34:35;;;;;;;40.92;31.33;;;;;;;14.38;72.56;101798.62;1775850;80;20881;-85
2021/11/04 10:37:20;;;;;;;45.45;31.60;;;;;;;14.37;72.78;101796.45;1775915;80;21787;-84
2021/11/04 10:39:51;;;;;;;41.53;32.23;;;;;;;14.38;72.72;101795.50;1775856;80;20968;-86
2021/11/04 10:42:18;;;;;;;42.03;32.28;;;;;;;14.37;72.72;101800.41;1776382;80;21030;-85
2021/11/04 10:44:46;;;;;;;41.25;31.80;;;;;;;14.31;72.67;101801.59;1776493;80;20952;-85
2021/11/04 10:47:21;;;;;;;40.23;31.17;;;;;;;14.25;72.85;101804.61;1777266;80;21394;-83
2021/11/04 10:49:50;;;;;;;43.40;30.92;;;;;;;14.18;72.99;101793.99;1776351;80;21137;-85
2021/11/04 10:52:24;;;;;;;45.80;32.10;;;;;;;14.14;73.40;101791.17;1776005;80;20995;-86
2021/11/04 10:54:52;;;;;;;40.50;30.52;;;;;;;14.14;73.50;101781.06;1775836;80;21335;-83
2021/11/04 10:57:43;;;;;;;43.38;28.25;;;;;;;14.14;73.50;101777.98;1776084;80;21383;-84
2021/11/04 11:00:18;;;;;;;38.98;30.37;;;;;;;14.15;73.47;101780.14;1776036;80;20885;-86
2021/11/04 11:03:10;;;;;;;50.70;36.10;;;;;;;14.14;73.67;101780.62;1777334;80;21209;-82
2021/11/04 11:05:39;;;;;;;47.88;34.48;;;;;;;14.20;73.81;101780.25;1777027;80;20933;-84
2021/11/04 11:08:07;;;;;;;49.45;34.30;;;;;;;14.34;73.80;101778.17;1776686;80;20896;-85
2021/11/04 11:10:36;;;;;;;50.38;34.27;;;;;;;14.42;72.99;101767.16;1776114;80;20927;-85
2021/11/04 11:13:11;;;;;;;52.60;34.70;;;;;;;14.38;72.72;101763.83;1756168;80;20916;-83
2021/11/04 11:15:45;;;;;;;54.23;36.15;;;;;;;14.36;72.81;101771.02;1776402;80;21310;-86
2021/11/04 11:18:12;;;;;;;;;;;;;;;14.34;72.83;101764.09;1778687;80;20893;-87
2021/11/04 11:20:43;;;;;;;53.23;34.05;;;;;;;14.35;72.93;101765.34;1776161;80;20105;-86